Time;durP1;ratioP1;P1;durP2;ratioP2;P2;SDS_P1;SDS_P2;PMS_P1;PMS_P2;Temp;Humidity;BMP_temperature;BMP_pressure;BME280_temperature;BME280_humidity;BME280_pressure;Samples;Min_cycle;Max_cycle;Signal;HPM_P1;HPM_P2
2021/10/11 00:00:30;;;;;;;144.47;84.87;;;8.60;99.90;;;;;;5117437;27;20485;-69
2021/10/11 00:02:58;;;;;;;136.53;82.60;;;8.70;99.90;;;;;;5123758;27;20456;-72
2021/10/11 00:05:25;;;;;;;141.00;81.83;;;8.90;99.90;;;;;;5118094;27;20467;-72
2021/10/11 00:07:52;;;;;;;128.30;78.57;;;9.00;99.90;;;;;;5097611;27;20952;-70
2021/10/11 00:10:19;;;;;;;134.60;80.73;;;9.10;99.90;;;;;;5098351;28;20458;-69
2021/10/11 00:12:48;;;;;;;107.10;68.80;;;9.20;99.90;;;;;;5095634;27;20540;-69
2021/10/11 00:15:16;;;;;;;116.43;71.43;;;9.30;99.90;;;;;;5093692;27;20465;-71
2021/10/11 00:17:44;;;;;;;118.10;76.00;;;9.30;99.90;;;;;;5094531;27;20522;-70
2021/10/11 00:20:12;;;;;;;106.90;72.10;;;9.30;99.90;;;;;;5095421;27;20457;-70
2021/10/11 00:22:41;;;;;;;122.90;76.50;;;9.20;99.90;;;;;;5099147;27;21017;-70
2021/10/11 00:25:09;;;;;;;141.73;84.57;;;9.30;99.90;;;;;;5099615;27;20915;-69
2021/10/11 00:27:37;;;;;;;120.87;80.40;;;9.40;99.90;;;;;;5095935;27;20462;-69
2021/10/11 00:30:06;;;;;;;113.07;74.80;;;9.50;99.90;;;;;;5100043;27;20469;-69
2021/10/11 00:32:35;;;;;;;106.50;71.37;;;9.50;99.90;;;;;;5098542;27;20465;-69
2021/10/11 00:35:04;;;;;;;141.00;82.37;;;9.60;99.90;;;;;;5092276;27;20514;-69
2021/10/11 00:37:31;;;;;;;120.20;78.00;;;9.60;99.90;;;;;;5096946;27;21147;-72
2021/10/11 00:39:58;;;;;;;132.73;82.67;;;9.70;99.90;;;;;;5097990;27;20462;-72
2021/10/11 00:42:25;;;;;;;127.53;82.07;;;9.70;99.90;;;;;;5098727;27;20481;-70
2021/10/11 00:44:52;;;;;;;115.23;74.07;;;9.70;99.90;;;;;;5097918;27;20472;-70
2021/10/11 00:47:19;;;;;;;105.63;78.43;;;9.80;99.90;;;;;;5108310;27;21156;-69
2021/10/11 00:49:46;;;;;;;121.40;77.70;;;9.80;99.90;;;;;;5094697;27;20487;-70
2021/10/11 00:52:14;;;;;;;106.40;72.40;;;9.80;99.90;;;;;;5094471;28;20446;-69
2021/10/11 00:54:41;;;;;;;113.70;75.20;;;9.90;99.90;;;;;;5099481;27;20462;-70
2021/10/11 00:57:08;;;;;;;119.80;79.50;;;9.90;99.90;;;;;;5096572;27;20462;-70
2021/10/11 00:59:35;;;;;;;118.00;80.07;;;9.90;99.90;;;;;;5094156;27;20616;-71
2021/10/11 01:02:04;;;;;;;102.67;71.83;;;10.00;99.90;;;;;;5094225;28;20952;-69
2021/10/11 01:04:32;;;;;;;105.83;73.67;;;10.00;99.90;;;;;;5098377;27;20536;-69
2021/10/11 01:06:59;;;;;;;114.87;78.93;;;10.10;99.90;;;;;;5103420;27;20465;-68
2021/10/11 01:09:28;;;;;;;121.93;80.10;;;10.10;99.90;;;;;;5103380;27;20465;-71
2021/10/11 01:11:55;;;;;;;135.03;84.83;;;10.10;99.90;;;;;;5096071;27;20485;-67
2021/10/11 01:14:23;;;;;;;129.33;78.10;;;10.20;99.90;;;;;;5092680;28;20466;-70
2021/10/11 01:16:50;;;;;;;123.80;80.40;;;10.20;99.90;;;;;;5097485;27;21066;-71
2021/10/11 01:19:18;;;;;;;124.33;80.27;;;10.30;99.90;;;;;;5095659;27;20468;-72
2021/10/11 01:21:46;;;;;;;123.83;77.43;;;10.30;99.90;;;;;;5095971;27;20767;-70
2021/10/11 01:24:14;;;;;;;140.70;81.67;;;10.40;99.90;;;;;;5094246;27;20552;-70
2021/10/11 01:26:42;;;;;;;129.47;82.50;;;10.50;99.90;;;;;;5097119;27;21179;-72
2021/10/11 01:29:11;;;;;;;117.20;74.77;;;10.60;99.90;;;;;;5092676;27;20504;-69
2021/10/11 01:31:38;;;;;;;124.80;77.47;;;10.60;99.90;;;;;;5091263;27;20492;-69
2021/10/11 01:34:06;;;;;;;144.03;86.17;;;10.70;99.90;;;;;;5090694;28;20480;-69
2021/10/11 01:36:34;;;;;;;124.77;81.23;;;10.70;99.90;;;;;;5101413;27;20523;-68
2021/10/11 01:39:04;;;;;;;121.73;79.97;;;10.80;99.90;;;;;;5103090;27;20469;-68
2021/10/11 01:41:31;;;;;;;137.90;82.40;;;10.90;99.90;;;;;;5093216;27;20496;-68
2021/10/11 01:43:58;;;;;;;129.20;80.57;;;10.90;99.90;;;;;;5103697;27;20463;-70
2021/10/11 01:46:25;;;;;;;134.90;85.10;;;10.90;99.90;;;;;;5094704;27;20832;-70
2021/10/11 01:48:52;;;;;;;133.20;82.00;;;11.00;99.90;;;;;;5093900;27;20483;-69
2021/10/11 01:51:22;;;;;;;128.40;82.33;;;11.00;99.90;;;;;;5093357;28;20465;-68
2021/10/11 01:53:49;;;;;;;128.43;81.73;;;11.10;99.90;;;;;;5096612;27;20560;-68
2021/10/11 01:56:18;;;;;;;129.13;84.07;;;11.10;99.90;;;;;;5092929;27;20460;-69
2021/10/11 01:58:46;;;;;;;127.73;80.30;;;11.10;99.90;;;;;;5094235;27;20920;-68
2021/10/11 02:01:13;;;;;;;122.73;77.47;;;11.10;99.90;;;;;;5093271;28;20485;-68
2021/10/11 02:03:42;;;;;;;134.53;83.20;;;11.10;99.90;;;;;;5094140;27;20912;-69
2021/10/11 02:06:09;;;;;;;120.30;78.53;;;11.10;99.90;;;;;;5096365;27;20465;-68
2021/10/11 02:08:38;;;;;;;139.53;83.27;;;11.20;99.90;;;;;;5099548;27;20460;-68
2021/10/11 02:11:05;;;;;;;130.30;83.77;;;11.20;99.90;;;;;;5092150;27;20942;-67
2021/10/11 02:13:33;;;;;;;130.93;81.93;;;11.30;99.90;;;;;;5095419;27;20454;-67
2021/10/11 02:16:00;;;;;;;128.70;79.40;;;11.30;99.90;;;;;;5090954;27;21565;-68
2021/10/11 02:18:27;;;;;;;134.87;81.53;;;11.30;99.90;;;;;;5090510;27;20465;-68
2021/10/11 02:20:53;;;;;;;118.17;71.20;;;11.40;99.90;;;;;;5089552;28;21022;-68
2021/10/11 02:23:21;;;;;;;101.67;62.47;;;11.40;99.90;;;;;;5093054;27;20458;-67
2021/10/11 02:25:48;;;;;;;111.70;67.83;;;11.40;99.90;;;;;;5098351;27;20552;-69
2021/10/11 02:28:15;;;;;;;101.70;62.57;;;11.40;99.90;;;;;;5098562;28;21261;-69
2021/10/11 02:30:43;;;;;;;109.70;66.70;;;11.30;99.90;;;;;;5091263;27;20976;-70
2021/10/11 02:33:10;;;;;;;104.67;64.47;;;11.30;99.90;;;;;;5098367;28;20481;-67
2021/10/11 02:35:38;;;;;;;109.70;66.50;;;11.40;99.90;;;;;;5097009;27;20461;-67
2021/10/11 02:38:05;;;;;;;110.07;69.80;;;11.40;99.90;;;;;;5105156;27;20709;-67
2021/10/11 02:40:32;;;;;;;108.40;64.70;;;11.40;99.90;;;;;;5100120;28;20711;-67
2021/10/11 02:42:59;;;;;;;125.70;69.30;;;11.50;99.90;;;;;;5096749;28;20467;-68
2021/10/11 02:45:26;;;;;;;109.33;68.43;;;11.50;99.90;;;;;;5097473;28;20466;-67
2021/10/11 02:47:54;;;;;;;107.90;67.97;;;11.40;99.90;;;;;;5103796;27;20492;-69
2021/10/11 02:50:21;;;;;;;114.97;68.87;;;11.50;99.90;;;;;;5096204;28;20471;-67
2021/10/11 02:52:48;;;;;;;104.43;63.73;;;11.50;99.90;;;;;;5102301;28;20891;-67
2021/10/11 02:55:15;;;;;;;104.10;64.50;;;11.50;99.90;;;;;;5107749;28;20814;-67
2021/10/11 02:57:42;;;;;;;101.70;60.53;;;11.60;99.90;;;;;;5101705;28;20449;-68
2021/10/11 03:00:10;;;;;;;94.67;60.50;;;11.60;99.90;;;;;;5104281;28;20492;-67
2021/10/11 03:02:37;;;;;;;99.13;59.57;;;11.60;99.90;;;;;;5102229;28;20454;-69
2021/10/11 03:05:06;;;;;;;91.40;58.30;;;11.60;99.90;;;;;;5103428;28;20457;-67
2021/10/11 03:07:33;;;;;;;97.17;56.40;;;11.70;99.90;;;;;;5110123;28;20459;-70
2021/10/11 03:10:00;;;;;;;84.23;53.83;;;11.70;99.90;;;;;;5106768;28;20464;-70
2021/10/11 03:12:27;;;;;;;92.70;53.07;;;11.70;99.90;;;;;;5099981;28;20499;-68
2021/10/11 03:14:54;;;;;;;84.03;54.73;;;11.70;99.90;;;;;;5095452;28;20914;-70
2021/10/11 03:17:21;;;;;;;86.83;53.53;;;11.70;99.90;;;;;;5102325;28;20982;-67
2021/10/11 03:19:48;;;;;;;82.63;51.90;;;11.80;99.90;;;;;;5094692;28;20453;-68
2021/10/11 03:22:16;;;;;;;80.43;51.27;;;11.70;99.90;;;;;;5114474;28;20460;-67
2021/10/11 03:24:43;;;;;;;75.00;49.53;;;11.80;99.90;;;;;;5102632;28;20480;-68
2021/10/11 03:27:10;;;;;;;81.77;51.10;;;11.80;99.90;;;;;;5106700;28;20787;-68
2021/10/11 03:29:38;;;;;;;71.70;49.47;;;11.80;99.90;;;;;;5105134;28;20476;-69
2021/10/11 03:32:05;;;;;;;79.00;52.07;;;11.70;99.90;;;;;;5100486;28;20484;-68
2021/10/11 03:34:33;;;;;;;79.97;51.07;;;11.80;99.90;;;;;;5097134;28;20462;-68
2021/10/11 03:37:01;;;;;;;79.27;48.13;;;11.80;99.90;;;;;;5100344;28;20465;-67
2021/10/11 03:39:29;;;;;;;73.33;48.03;;;11.80;99.90;;;;;;5095770;28;20908;-68
2021/10/11 03:41:57;;;;;;;68.87;45.87;;;11.80;99.90;;;;;;5106509;28;20463;-68
2021/10/11 03:44:25;;;;;;;74.50;47.73;;;11.80;99.90;;;;;;5099350;28;20460;-68
2021/10/11 03:46:52;;;;;;;76.67;45.60;;;11.80;99.90;;;;;;5105329;28;20458;-68
2021/10/11 03:49:19;;;;;;;71.13;45.10;;;11.70;99.90;;;;;;5101002;28;20484;-68
2021/10/11 03:51:46;;;;;;;64.77;44.97;;;11.80;99.90;;;;;;5108767;28;20836;-68
2021/10/11 03:54:13;;;;;;;61.40;42.77;;;11.70;99.90;;;;;;5104327;28;20833;-73
2021/10/11 03:56:44;;;;;;;60.53;42.13;;;11.80;99.90;;;;;;5100719;27;20462;-68
2021/10/11 03:59:11;;;;;;;61.67;42.90;;;11.80;99.90;;;;;;5100959;27;20509;-68
2021/10/11 04:01:38;;;;;;;66.70;44.57;;;11.80;99.90;;;;;;5105861;27;20464;-68
2021/10/11 04:04:06;;;;;;;57.70;41.40;;;11.80;99.90;;;;;;5114196;27;20996;-68
2021/10/11 04:06:33;;;;;;;59.00;39.70;;;11.80;99.90;;;;;;5112914;27;20483;-67
2021/10/11 04:09:00;;;;;;;60.87;40.97;;;11.80;99.90;;;;;;5118527;27;20475;-68
2021/10/11 04:11:30;;;;;;;54.83;36.73;;;11.80;99.90;;;;;;5121057;27;20646;-68
2021/10/11 04:13:58;;;;;;;53.10;39.63;;;11.80;99.90;;;;;;5119322;27;20824;-68
2021/10/11 04:16:25;;;;;;;50.23;36.83;;;11.80;99.90;;;;;;5114508;27;20514;-67
2021/10/11 04:18:52;;;;;;;54.23;35.47;;;11.80;99.90;;;;;;5117903;27;20472;-67
2021/10/11 04:21:19;;;;;;;45.97;32.80;;;11.80;99.90;;;;;;5104245;27;20464;-68
2021/10/11 04:23:46;;;;;;;45.83;34.27;;;11.70;99.90;;;;;;5114023;27;20457;-68
2021/10/11 04:26:13;;;;;;;41.93;33.10;;;11.70;99.90;;;;;;5113693;27;20549;-70
2021/10/11 04:28:40;;;;;;;53.17;32.50;;;11.60;99.90;;;;;;5115747;27;20468;-67
2021/10/11 04:31:08;;;;;;;49.17;32.23;;;11.60;99.90;;;;;;5116225;27;20453;-68
2021/10/11 04:33:35;;;;;;;44.90;30.47;;;11.50;99.90;;;;;;5118028;27;20493;-69
2021/10/11 04:36:03;;;;;;;42.17;29.90;;;11.60;99.90;;;;;;5121506;27;20461;-67
2021/10/11 04:38:30;;;;;;;39.97;30.63;;;11.60;99.90;;;;;;5104323;27;20860;-69
2021/10/11 04:40:57;;;;;;;39.63;28.90;;;11.60;99.90;;;;;;5104764;27;20461;-68
2021/10/11 04:43:24;;;;;;;41.50;29.63;;;11.60;99.90;;;;;;5110154;27;20777;-67
2021/10/11 04:45:50;;;;;;;36.23;29.03;;;11.70;99.90;;;;;;5114437;27;20464;-67
2021/10/11 04:48:19;;;;;;;42.70;29.60;;;11.80;99.90;;;;;;5111086;27;20461;-71
2021/10/11 04:50:46;;;;;;;53.20;30.33;;;11.80;99.90;;;;;;5113448;27;20463;-67
2021/10/11 04:53:13;;;;;;;46.80;29.87;;;11.80;99.90;;;;;;5123294;27;20574;-68
2021/10/11 04:55:40;;;;;;;45.13;29.83;;;11.80;99.90;;;;;;5116077;27;20465;-69
2021/10/11 04:58:07;;;;;;;38.30;30.10;;;11.90;99.90;;;;;;5113554;27;20504;-67
2021/10/11 05:00:36;;;;;;;33.67;28.00;;;11.90;99.90;;;;;;5103294;27;20458;-68
2021/10/11 05:03:04;;;;;;;55.33;29.50;;;11.90;99.90;;;;;;5116818;27;20761;-70
2021/10/11 05:05:34;;;;;;;40.90;28.20;;;11.90;99.90;;;;;;5123762;27;20476;-68
2021/10/11 05:08:01;;;;;;;56.00;29.07;;;12.00;99.90;;;;;;5115078;27;20461;-67
2021/10/11 05:10:29;;;;;;;35.90;27.90;;;12.00;99.90;;;;;;5113426;27;20455;-71
2021/10/11 05:12:57;;;;;;;36.03;26.63;;;12.00;99.90;;;;;;5110223;27;20488;-68
2021/10/11 05:15:24;;;;;;;45.60;26.83;;;11.90;99.90;;;;;;5113081;27;20449;-70
2021/10/11 05:17:52;;;;;;;44.17;28.30;;;12.00;99.90;;;;;;5107839;27;20795;-68
2021/10/11 05:20:19;;;;;;;49.27;25.83;;;11.90;99.90;;;;;;5105154;27;20457;-70
2021/10/11 05:22:49;;;;;;;32.70;28.17;;;12.00;99.90;;;;;;5113333;27;20463;-68
2021/10/11 05:25:16;;;;;;;29.80;26.37;;;12.00;99.90;;;;;;5113413;27;20827;-68
2021/10/11 05:27:43;;;;;;;34.00;25.77;;;12.00;99.90;;;;;;5110667;27;20486;-68
2021/10/11 05:30:11;;;;;;;31.37;26.70;;;11.90;99.90;;;;;;5109785;27;20584;-68
2021/10/11 05:32:38;;;;;;;39.10;25.97;;;11.90;99.90;;;;;;5105746;27;20481;-70
2021/10/11 05:35:07;;;;;;;48.20;26.10;;;11.90;99.90;;;;;;5109441;27;20461;-70
2021/10/11 05:37:36;;;;;;;36.77;26.10;;;11.90;99.90;;;;;;5111338;27;20485;-68
2021/10/11 05:40:06;;;;;;;35.93;25.40;;;11.90;99.90;;;;;;5111316;27;20544;-69
2021/10/11 05:42:33;;;;;;;37.63;26.10;;;11.90;99.90;;;;;;5112958;27;20449;-68
2021/10/11 05:45:00;;;;;;;35.00;25.00;;;11.90;99.90;;;;;;5114059;27;20536;-69
2021/10/11 05:47:27;;;;;;;37.43;24.50;;;11.80;99.90;;;;;;5114097;27;20468;-70
2021/10/11 05:49:55;;;;;;;31.87;25.50;;;11.90;99.90;;;;;;5117100;27;20495;-68
2021/10/11 05:52:22;;;;;;;32.03;24.13;;;11.90;99.90;;;;;;5118571;27;20485;-70
2021/10/11 05:54:49;;;;;;;39.10;24.47;;;11.90;99.90;;;;;;5113253;27;20722;-69
2021/10/11 05:57:17;;;;;;;31.80;23.57;;;11.80;99.90;;;;;;5106216;27;20472;-68
2021/10/11 05:59:44;;;;;;;34.07;24.40;;;11.80;99.90;;;;;;5113133;27;20488;-68
2021/10/11 06:02:11;;;;;;;32.63;23.87;;;11.80;99.90;;;;;;5102934;27;20501;-68
2021/10/11 06:04:38;;;;;;;37.33;24.50;;;11.80;99.90;;;;;;5111132;27;20461;-68
2021/10/11 06:07:05;;;;;;;35.67;24.17;;;11.80;99.90;;;;;;5114742;27;20460;-68
2021/10/11 06:09:33;;;;;;;35.03;24.40;;;11.80;99.90;;;;;;5120279;27;20456;-68
2021/10/11 06:12:01;;;;;;;28.80;23.17;;;11.80;99.90;;;;;;5112157;27;20454;-68
2021/10/11 06:14:30;;;;;;;30.80;23.37;;;11.80;99.90;;;;;;5109186;27;20483;-68
2021/10/11 06:16:58;;;;;;;27.17;23.60;;;11.80;99.90;;;;;;5115652;27;20548;-68
2021/10/11 06:19:25;;;;;;;26.37;23.27;;;11.80;99.90;;;;;;5104048;27;20578;-68
2021/10/11 06:21:53;;;;;;;29.30;23.10;;;11.80;99.90;;;;;;5116513;27;20460;-68
2021/10/11 06:24:20;;;;;;;30.53;24.60;;;11.80;99.90;;;;;;5109372;27;20469;-68
2021/10/11 06:26:46;;;;;;;30.90;23.90;;;11.70;99.90;;;;;;5111817;27;20552;-70
2021/10/11 06:29:14;;;;;;;27.73;24.73;;;11.70;99.90;;;;;;5109906;27;20936;-70
2021/10/11 06:31:43;;;;;;;30.07;23.93;;;11.60;99.90;;;;;;5109235;27;20474;-68
2021/10/11 06:34:10;;;;;;;27.90;24.97;;;11.50;99.90;;;;;;5116096;27;20485;-68
2021/10/11 06:36:38;;;;;;;28.97;24.10;;;11.40;99.90;;;;;;5115709;27;20461;-68
2021/10/11 06:39:07;;;;;;;38.70;24.20;;;11.30;99.90;;;;;;5116696;27;20899;-69
2021/10/11 06:41:35;;;;;;;33.80;24.87;;;11.30;99.90;;;;;;5110506;28;20987;-68
2021/10/11 06:44:03;;;;;;;28.93;24.83;;;11.20;99.90;;;;;;5112062;27;20497;-69
2021/10/11 06:46:30;;;;;;;25.50;22.83;;;11.10;99.90;;;;;;5116945;27;20454;-68
2021/10/11 06:49:00;;;;;;;39.97;24.73;;;11.10;99.90;;;;;;5110426;27;20480;-68
2021/10/11 06:51:27;;;;;;;31.23;23.33;;;11.10;99.90;;;;;;5110040;28;20453;-68
2021/10/11 06:53:53;;;;;;;28.53;23.17;;;11.10;99.90;;;;;;5115336;28;20481;-68
2021/10/11 06:56:21;;;;;;;27.07;23.07;;;11.00;99.90;;;;;;5111373;28;20460;-68
2021/10/11 06:58:48;;;;;;;26.83;23.67;;;11.00;99.90;;;;;;5109917;28;20859;-68
2021/10/11 07:01:15;;;;;;;27.07;23.80;;;11.00;99.90;;;;;;5100980;28;20559;-68
2021/10/11 07:03:42;;;;;;;28.50;24.10;;;11.00;99.90;;;;;;5122311;28;20528;-69
2021/10/11 07:06:17;;;;;;;26.83;23.77;;;11.00;99.90;;;;;;5104964;28;20457;-68
2021/10/11 07:08:44;;;;;;;37.07;23.27;;;11.10;99.90;;;;;;5113547;28;20492;-69
2021/10/11 07:11:11;;;;;;;26.10;23.33;;;11.10;99.90;;;;;;5105521;28;20465;-68
2021/10/11 07:13:38;;;;;;;25.73;23.03;;;11.10;99.90;;;;;;5096894;28;20488;-68
2021/10/11 07:16:06;;;;;;;26.20;23.50;;;11.10;99.90;;;;;;5101773;28;20475;-68
2021/10/11 07:18:34;;;;;;;26.07;23.33;;;11.10;99.90;;;;;;5102195;28;20514;-68
2021/10/11 07:21:01;;;;;;;27.33;23.83;;;11.20;99.90;;;;;;5105187;28;20482;-67
2021/10/11 07:23:30;;;;;;;31.47;23.13;;;11.30;99.90;;;;;;5106354;28;20461;-67
2021/10/11 07:25:59;;;;;;;30.50;23.07;;;11.30;99.90;;;;;;5096819;28;20853;-68
2021/10/11 07:28:26;;;;;;;32.60;24.50;;;11.40;99.90;;;;;;5104034;28;20456;-68
2021/10/11 07:30:54;;;;;;;25.10;22.60;;;11.50;99.90;;;;;;5100820;27;20962;-70
2021/10/11 07:33:21;;;;;;;27.50;21.23;;;11.60;99.90;;;;;;5106338;27;20511;-68
2021/10/11 07:35:50;;;;;;;27.47;23.97;;;11.60;99.90;;;;;;5114195;27;20797;-70
2021/10/11 07:38:18;;;;;;;31.70;22.00;;;11.70;99.90;;;;;;5114201;27;20465;-67
2021/10/11 07:40:47;;;;;;;29.07;22.50;;;11.80;99.90;;;;;;5113960;27;20460;-70
2021/10/11 07:43:14;;;;;;;24.07;21.70;;;12.00;99.90;;;;;;5116052;27;20466;-67
2021/10/11 07:45:41;;;;;;;34.90;21.50;;;12.10;99.90;;;;;;5117256;27;20466;-70
2021/10/11 07:48:09;;;;;;;24.13;22.10;;;12.20;99.90;;;;;;5116129;27;20468;-70
2021/10/11 07:50:36;;;;;;;30.30;21.57;;;12.30;99.90;;;;;;5113070;27;20549;-68
2021/10/11 07:53:03;;;;;;;23.97;20.90;;;12.40;99.90;;;;;;5109979;27;20822;-69
2021/10/11 07:55:30;;;;;;;22.30;20.00;;;12.40;99.90;;;;;;5103493;27;20473;-68
2021/10/11 07:57:58;;;;;;;24.50;19.37;;;12.60;99.90;;;;;;5105957;27;20479;-69
2021/10/11 08:00:25;;;;;;;26.00;19.10;;;12.70;99.90;;;;;;5105510;27;20478;-70
2021/10/11 08:02:52;;;;;;;25.33;18.70;;;12.80;99.90;;;;;;5107140;27;20799;-67
2021/10/11 08:05:19;;;;;;;26.23;19.50;;;12.90;99.90;;;;;;5096732;27;20457;-68
2021/10/11 08:07:46;;;;;;;22.17;19.33;;;12.90;99.90;;;;;;5095364;27;20464;-69
2021/10/11 08:10:13;;;;;;;22.37;19.70;;;13.10;99.90;;;;;;5105701;27;20566;-68
2021/10/11 08:12:41;;;;;;;24.10;19.07;;;13.20;99.90;;;;;;5101859;27;20461;-69
2021/10/11 08:15:11;;;;;;;21.30;19.47;;;13.40;99.90;;;;;;5116665;27;20485;-68
2021/10/11 08:17:38;;;;;;;23.53;20.03;;;13.60;99.90;;;;;;5116673;27;20965;-69
2021/10/11 08:20:07;;;;;;;23.20;19.20;;;13.70;99.90;;;;;;5113019;27;20465;-68
2021/10/11 08:22:34;;;;;;;22.70;18.67;;;13.70;99.90;;;;;;5113670;27;20457;-68
2021/10/11 08:25:02;;;;;;;20.57;18.50;;;13.80;99.90;;;;;;5100593;27;20472;-69
2021/10/11 08:27:29;;;;;;;24.43;19.20;;;13.70;99.90;;;;;;5111088;27;20541;-71
2021/10/11 08:29:57;;;;;;;24.30;19.23;;;13.60;99.90;;;;;;5107802;27;20460;-69
2021/10/11 08:32:29;;;;;;;20.23;18.40;;;13.70;99.90;;;;;;5112188;27;20472;-72
2021/10/11 08:34:56;;;;;;;18.63;17.20;;;13.70;99.90;;;;;;5106560;27;20522;-68
2021/10/11 08:37:24;;;;;;;26.23;17.93;;;13.80;99.90;;;;;;5108735;27;20453;-68
2021/10/11 08:39:52;;;;;;;22.27;17.83;;;13.90;99.90;;;;;;5101600;27;20457;-68
2021/10/11 08:42:21;;;;;;;19.30;17.63;;;14.00;99.90;;;;;;5106071;27;20543;-68
2021/10/11 08:44:51;;;;;;;20.10;18.30;;;14.20;99.90;;;;;;5108205;27;20484;-68
2021/10/11 08:47:18;;;;;;;20.90;18.90;;;14.40;99.90;;;;;;5107328;27;20457;-68
2021/10/11 08:49:48;;;;;;;19.70;17.70;;;14.40;99.90;;;;;;5110640;27;20508;-68
2021/10/11 08:52:16;;;;;;;20.20;18.10;;;14.70;99.90;;;;;;5108077;27;20472;-68
2021/10/11 08:54:43;;;;;;;20.67;18.40;;;14.90;99.90;;;;;;5098743;27;20496;-71
2021/10/11 08:57:20;;;;;;;26.33;18.70;;;14.90;99.90;;;;;;5095484;27;20476;-71
2021/10/11 08:59:48;;;;;;;20.93;17.20;;;15.10;99.90;;;;;;5116313;27;20480;-71
2021/10/11 09:02:16;;;;;;;24.70;18.10;;;15.20;99.90;;;;;;5099720;27;20996;-70
2021/10/11 09:04:49;;;;;;;20.00;18.10;;;15.10;99.90;;;;;;5110505;27;20483;-68
2021/10/11 09:07:16;;;;;;;27.53;18.03;;;14.90;99.90;;;;;;5108448;27;20989;-69
2021/10/11 09:09:47;;;;;;;18.77;17.17;;;14.90;99.90;;;;;;5106837;27;20460;-69
2021/10/11 09:12:19;;;;;;;19.27;17.37;;;14.90;99.90;;;;;;5104946;27;20926;-70
2021/10/11 09:14:47;;;;;;;18.43;16.73;;;14.90;99.90;;;;;;5112682;27;20572;-68
2021/10/11 09:17:28;;;;;;;22.53;19.33;;;15.00;99.90;;;;;;5109199;27;20460;-68
2021/10/11 09:20:07;;;;;;;19.00;17.50;;;15.20;99.90;;;;;;5112724;27;20448;-68
2021/10/11 09:22:35;;;;;;;18.03;16.50;;;15.30;99.90;;;;;;5106854;27;20471;-71
2021/10/11 09:25:03;;;;;;;19.20;17.20;;;15.50;99.90;;;;;;5104487;27;20963;-69
2021/10/11 09:27:41;;;;;;;18.33;16.80;;;15.40;99.90;;;;;;5101542;27;20465;-67
2021/10/11 09:30:10;;;;;;;18.73;17.40;;;15.40;99.90;;;;;;5103669;27;20461;-69
2021/10/11 09:32:37;;;;;;;19.43;17.73;;;15.50;99.90;;;;;;5103011;27;20664;-69
2021/10/11 09:35:16;;;;;;;18.70;17.07;;;15.90;99.90;;;;;;5112533;27;21035;-69
2021/10/11 09:37:49;;;;;;;18.73;16.80;;;16.20;99.90;;;;;;5107697;27;20973;-69
2021/10/11 09:40:16;;;;;;;19.40;17.47;;;16.40;99.90;;;;;;5109061;27;20480;-70
2021/10/11 09:42:43;;;;;;;20.73;15.90;;;16.30;99.90;;;;;;5107968;27;20457;-70
2021/10/11 09:45:11;;;;;;;18.13;16.73;;;16.20;99.90;;;;;;5105680;27;20457;-69
2021/10/11 09:47:40;;;;;;;19.53;17.70;;;16.10;99.90;;;;;;5110679;27;20564;-69
2021/10/11 09:50:09;;;;;;;23.17;16.60;;;16.20;99.90;;;;;;5109833;27;20473;-68
2021/10/11 09:52:38;;;;;;;21.00;18.90;;;16.00;99.90;;;;;;5110339;27;20463;-69
2021/10/11 09:55:07;;;;;;;18.90;17.00;;;16.00;99.90;;;;;;5105429;27;20495;-71
2021/10/11 09:57:34;;;;;;;18.60;16.77;;;16.00;99.90;;;;;;5106923;27;21001;-69
2021/10/11 10:00:04;;;;;;;19.80;17.93;;;15.90;99.90;;;;;;5110566;27;20485;-69
2021/10/11 10:02:32;;;;;;;17.90;16.20;;;15.80;99.90;;;;;;5102540;27;20461;-69
2021/10/11 10:05:02;;;;;;;20.23;16.03;;;15.80;99.90;;;;;;5103073;27;20535;-70
2021/10/11 10:07:34;;;;;;;27.33;16.60;;;16.10;99.90;;;;;;5114251;27;20469;-69
2021/10/11 10:10:06;;;;;;;21.43;17.50;;;16.20;99.90;;;;;;5106387;27;20860;-69
2021/10/11 10:12:33;;;;;;;19.30;17.50;;;16.20;99.90;;;;;;5103005;27;20776;-69
2021/10/11 10:15:03;;;;;;;17.90;16.30;;;16.30;99.90;;;;;;5097950;27;20660;-68
2021/10/11 10:17:34;;;;;;;17.60;15.90;;;16.20;99.90;;;;;;5110314;27;20468;-71
2021/10/11 10:20:09;;;;;;;21.37;15.30;;;16.30;99.90;;;;;;5116847;27;20460;-68
2021/10/11 10:22:48;;;;;;;21.03;15.50;;;16.50;99.90;;;;;;5095291;27;20680;-68
2021/10/11 10:25:17;;;;;;;16.90;15.30;;;16.60;99.90;;;;;;5090202;27;20457;-68
2021/10/11 10:27:46;;;;;;;15.97;14.63;;;16.80;99.90;;;;;;5104670;27;20486;-68
2021/10/11 10:30:18;;;;;;;16.47;14.60;;;16.80;99.90;;;;;;5101657;27;20550;-68
2021/10/11 10:33:01;;;;;;;16.53;15.20;;;16.80;99.90;;;;;;5100354;27;20567;-68
2021/10/11 10:35:30;;;;;;;19.20;15.70;;;16.80;99.90;;;;;;5094662;27;20570;-70
2021/10/11 10:37:58;;;;;;;18.60;15.20;;;16.90;99.90;;;;;;5087960;28;20906;-68
2021/10/11 10:40:29;;;;;;;16.83;15.73;;;16.80;99.90;;;;;;5100378;27;20463;-67
2021/10/11 10:43:07;;;;;;;17.83;14.93;;;16.90;99.90;;;;;;5106873;27;20471;-69
2021/10/11 10:45:36;;;;;;;16.40;15.10;;;17.20;99.90;;;;;;5087272;28;20947;-68
2021/10/11 10:48:04;;;;;;;19.10;16.03;;;17.60;99.90;;;;;;5084523;28;20468;-68
2021/10/11 10:50:33;;;;;;;17.37;15.63;;;17.80;99.90;;;;;;5081656;28;20526;-68
2021/10/11 10:53:02;;;;;;;18.77;17.13;;;17.60;99.90;;;;;;5093213;28;20452;-70
2021/10/11 10:55:30;;;;;;;16.40;15.30;;;17.50;99.90;;;;;;5096213;28;20528;-71
2021/10/11 10:58:01;;;;;;;17.70;16.57;;;17.40;99.90;;;;;;5107001;28;20459;-68
2021/10/11 11:00:28;;;;;;;17.90;16.10;;;17.10;99.90;;;;;;5108225;28;20469;-68
2021/10/11 11:02:55;;;;;;;17.60;16.10;;;17.10;99.90;;;;;;5111501;28;20931;-69
2021/10/11 11:05:23;;;;;;;17.63;16.33;;;16.90;99.90;;;;;;5111997;27;20461;-67
2021/10/11 11:07:53;;;;;;;19.47;16.27;;;16.80;99.90;;;;;;5117764;27;20823;-68
2021/10/11 11:10:23;;;;;;;17.67;16.23;;;16.50;99.90;;;;;;5103074;27;20460;-70
2021/10/11 11:12:54;;;;;;;16.97;15.40;;;16.40;99.90;;;;;;5101223;27;20456;-67
2021/10/11 11:15:30;;;;;;;17.90;16.10;;;16.10;99.90;;;;;;5104704;27;20493;-70
2021/10/11 11:17:59;;;;;;;16.13;15.13;;;15.90;99.90;;;;;;5099125;27;20543;-69
2021/10/11 11:20:28;;;;;;;17.63;16.20;;;15.80;99.90;;;;;;5104244;27;20469;-68
2021/10/11 11:22:57;;;;;;;16.60;15.07;;;15.80;99.90;;;;;;5102209;27;20461;-68
2021/10/11 11:25:29;;;;;;;16.90;15.60;;;15.70;99.90;;;;;;5107942;27;20456;-71
2021/10/11 11:27:58;;;;;;;16.60;15.20;;;15.90;99.90;;;;;;5104298;27;20459;-72
2021/10/11 11:30:26;;;;;;;16.60;14.83;;;15.90;99.90;;;;;;5113415;27;20457;-68
2021/10/11 11:32:55;;;;;;;16.60;15.40;;;16.00;99.90;;;;;;5105438;27;20464;-71
2021/10/11 11:35:25;;;;;;;17.87;15.80;;;16.20;99.90;;;;;;5110593;27;20480;-70
2021/10/11 11:37:54;;;;;;;15.90;14.70;;;16.10;99.90;;;;;;5103168;27;20544;-67
2021/10/11 11:40:23;;;;;;;16.37;14.83;;;15.90;99.90;;;;;;5109339;27;20465;-69
2021/10/11 11:42:52;;;;;;;16.97;15.27;;;15.80;99.90;;;;;;5107507;27;20457;-70
2021/10/11 11:45:23;;;;;;;15.70;14.53;;;16.00;99.90;;;;;;5108028;27;21118;-68
2021/10/11 11:47:50;;;;;;;16.60;15.20;;;16.20;99.90;;;;;;5100528;27;20495;-68
2021/10/11 11:50:19;;;;;;;16.67;15.47;;;16.30;99.90;;;;;;5107235;27;20480;-70
2021/10/11 11:52:51;;;;;;;16.50;14.50;;;16.20;99.90;;;;;;5109936;27;20829;-67
2021/10/11 11:55:20;;;;;;;15.73;14.50;;;16.50;99.90;;;;;;5114851;27;20500;-67
2021/10/11 11:57:48;;;;;;;16.43;14.83;;;16.50;99.90;;;;;;5105556;27;20457;-70
2021/10/11 12:00:16;;;;;;;16.10;14.57;;;16.50;99.90;;;;;;5110414;27;20464;-69
2021/10/11 12:02:46;;;;;;;15.43;14.43;;;16.80;99.90;;;;;;5105283;27;20472;-68
2021/10/11 12:05:16;;;;;;;17.73;16.20;;;16.80;99.90;;;;;;5106144;27;20461;-67
2021/10/11 12:07:46;;;;;;;16.80;15.20;;;17.00;99.90;;;;;;5106127;27;20656;-68
2021/10/11 12:10:20;;;;;;;16.40;14.70;;;17.20;99.90;;;;;;5103829;27;20461;-70
2021/10/11 12:12:47;;;;;;;16.07;14.90;;;17.00;99.90;;;;;;5104942;27;20453;-70
2021/10/11 12:15:21;;;;;;;17.00;15.30;;;17.00;99.90;;;;;;5113382;27;20480;-67
2021/10/11 12:17:50;;;;;;;17.23;15.77;;;17.20;99.90;;;;;;5103129;27;20545;-67
2021/10/11 12:20:18;;;;;;;17.40;15.70;;;17.20;99.90;;;;;;5107867;27;21031;-68
2021/10/11 12:22:53;;;;;;;17.83;15.80;;;17.00;99.90;;;;;;5107302;27;20835;-70
2021/10/11 12:25:20;;;;;;;17.17;15.40;;;17.00;99.90;;;;;;5100813;27;20469;-68
2021/10/11 12:27:47;;;;;;;16.07;14.90;;;17.20;99.90;;;;;;5108980;27;20452;-69
2021/10/11 12:30:14;;;;;;;17.20;16.00;;;17.50;99.90;;;;;;5106481;27;20471;-69